createdAt,value
2019-01-23T01:54:49.849Z,60.20
2019-01-23T01:57:21.103Z,56.33
2019-01-23T01:59:50.738Z,56.67
2019-01-23T02:02:20.345Z,56.90
2019-01-23T02:04:49.953Z,53.57
2019-01-23T02:07:19.586Z,60.87
2019-01-23T02:09:49.196Z,57.10
2019-01-23T02:12:18.810Z,54.60
2019-01-23T02:14:48.418Z,51.27
2019-01-23T02:17:37.482Z,57.57
2019-01-23T02:20:18.606Z,50.73
2019-01-23T02:22:48.212Z,51.83
2019-01-23T02:25:18.092Z,51.27
2019-01-23T02:27:48.178Z,49.27
2019-01-23T02:30:22.851Z,55.33
2019-01-23T02:32:52.474Z,54.83
2019-01-23T02:35:23.057Z,55.87
2019-01-23T02:37:52.678Z,50.17
2019-01-23T02:40:22.306Z,52.37
2019-01-23T02:42:52.012Z,50.33
2019-01-23T02:45:21.620Z,47.17
2019-01-23T02:47:51.304Z,51.73
2019-01-23T02:50:20.914Z,52.57
2019-01-23T02:52:50.527Z,49.93
2019-01-23T02:55:20.138Z,50.50
2019-01-23T02:57:49.761Z,55.07
2019-01-23T03:00:20.229Z,50.60
2019-01-23T03:02:49.842Z,51.07
2019-01-23T03:05:19.638Z,48.63
2019-01-23T03:07:49.250Z,50.50
2019-01-23T03:10:19.604Z,51.90
2019-01-23T03:12:49.224Z,53.13
2019-01-23T03:15:18.836Z,47.90
2019-01-23T03:17:48.472Z,50.57
2019-01-23T03:20:18.472Z,49.07
2019-01-23T03:22:49.148Z,50.00
2019-01-23T03:25:18.767Z,48.43
2019-01-23T03:27:48.380Z,49.70
2019-01-23T03:30:20.049Z,51.50
2019-01-23T03:32:49.667Z,48.70
2019-01-23T03:35:19.343Z,47.90
2019-01-23T03:37:48.952Z,47.00
2019-01-23T03:40:20.111Z,45.57
2019-01-23T03:42:49.719Z,44.13
2019-01-23T03:45:19.365Z,44.87
2019-01-23T03:47:48.987Z,50.03
2019-01-23T03:50:19.161Z,45.10
2019-01-23T03:52:48.779Z,42.50
2019-01-23T03:55:18.663Z,46.73
2019-01-23T03:57:48.287Z,47.63
2019-01-23T04:00:19.529Z,46.77
2019-01-23T04:02:50.879Z,46.27
2019-01-23T04:05:20.502Z,43.47
2019-01-23T04:07:50.128Z,45.03
2019-01-23T04:10:19.752Z,42.50
2019-01-23T04:12:55.740Z,45.73
2019-01-23T04:15:25.348Z,44.27
2019-01-23T04:17:54.969Z,44.93
2019-01-23T04:20:24.574Z,51.63
2019-01-23T04:22:54.207Z,46.57
2019-01-23T04:25:23.825Z,48.07
2019-01-23T04:27:53.458Z,46.90
2019-01-23T04:30:24.622Z,42.87
2019-01-23T04:32:54.235Z,47.33
2019-01-23T04:35:23.840Z,43.47
2019-01-23T04:37:53.454Z,44.87
2019-01-23T04:40:23.069Z,43.10
2019-01-23T04:42:52.752Z,48.47
2019-01-23T04:45:22.368Z,45.60
2019-01-23T04:47:51.987Z,47.97
2019-01-23T04:50:21.606Z,48.07
2019-01-23T04:53:01.914Z,42.40
2019-01-23T04:55:32.289Z,45.73
2019-01-23T04:58:14.158Z,48.50
2019-01-23T05:00:43.765Z,44.57
2019-01-23T05:03:13.388Z,41.10
2019-01-23T05:05:43.004Z,46.00
2019-01-23T05:08:12.623Z,49.10
2019-01-23T05:10:42.242Z,47.30
2019-01-23T05:13:11.855Z,48.00
2019-01-23T05:15:41.472Z,46.93
2019-01-23T05:18:11.070Z,46.20
2019-01-23T05:20:40.692Z,48.27
2019-01-23T05:23:10.305Z,47.27
2019-01-23T05:25:39.958Z,50.77
2019-01-23T05:28:09.568Z,48.37
2019-01-23T05:30:39.178Z,50.47
2019-01-23T05:33:08.792Z,51.57
2019-01-23T05:35:39.405Z,49.60
2019-01-23T05:38:09.055Z,48.77
2019-01-23T05:40:38.935Z,49.80
2019-01-23T05:43:10.396Z,50.00
2019-01-23T05:45:40.018Z,55.63
2019-01-23T05:48:09.628Z,52.27
2019-01-23T05:50:39.241Z,50.67
2019-01-23T05:53:08.855Z,47.97
2019-01-23T05:55:38.553Z,57.83
2019-01-23T05:58:10.176Z,50.13
2019-01-23T06:00:39.918Z,50.57
2019-01-23T06:03:09.534Z,52.67
2019-01-23T06:05:39.146Z,53.87
2019-01-23T06:08:08.756Z,56.17
2019-01-23T06:10:38.358Z,51.47
2019-01-23T06:13:07.998Z,54.20
2019-01-23T06:15:37.580Z,59.00
2019-01-23T06:18:07.209Z,56.17
2019-01-23T06:20:36.810Z,52.97
2019-01-23T06:23:06.431Z,56.40
2019-01-23T06:25:36.032Z,57.67
2019-01-23T06:28:05.648Z,56.53
2019-01-23T06:30:35.255Z,52.63
2019-01-23T06:33:04.892Z,58.27
2019-01-23T06:35:34.487Z,54.67
2019-01-23T06:38:04.106Z,55.10
2019-01-23T06:40:33.711Z,60.97
2019-01-23T06:43:03.319Z,53.77
2019-01-23T06:45:40.975Z,58.23
2019-01-23T06:48:10.575Z,55.53
2019-01-23T06:50:41.280Z,63.53
2019-01-23T06:53:14.245Z,53.87
2019-01-23T06:55:42.218Z,54.37
2019-01-23T06:58:11.826Z,58.63
2019-01-23T07:00:41.446Z,54.67
2019-01-23T07:03:11.050Z,57.30
2019-01-23T07:05:40.672Z,53.33
2019-01-23T07:08:11.246Z,58.30
2019-01-23T07:10:40.860Z,59.77
2019-01-23T07:13:10.469Z,68.83
2019-01-23T07:15:40.083Z,57.87
2019-01-23T07:18:09.706Z,59.77
2019-01-23T07:20:39.326Z,56.47
2019-01-23T07:23:08.957Z,55.90
2019-01-23T07:25:38.576Z,53.40
2019-01-23T07:28:08.200Z,53.50
2019-01-23T07:30:38.444Z,54.53
2019-01-23T07:33:08.107Z,58.80
2019-01-23T07:35:37.746Z,55.23
2019-01-23T07:38:07.372Z,56.53
2019-01-23T07:40:36.984Z,52.77
2019-01-23T07:43:06.632Z,58.43
2019-01-23T07:45:36.279Z,56.67
2019-01-23T07:48:05.907Z,58.90
2019-01-23T07:50:35.579Z,53.90
2019-01-23T07:53:05.374Z,60.33
2019-01-23T07:55:34.977Z,57.97
2019-01-23T07:58:04.596Z,59.47
2019-01-23T08:00:34.188Z,56.87
2019-01-23T08:03:03.814Z,58.50
2019-01-23T08:05:33.402Z,63.00
2019-01-23T08:08:03.012Z,60.67
2019-01-23T08:10:32.738Z,56.43
2019-01-23T08:13:02.333Z,56.03
2019-01-23T08:15:33.584Z,59.10
2019-01-23T08:18:03.180Z,60.20
2019-01-23T08:20:32.793Z,63.50
2019-01-23T08:23:02.436Z,65.43
2019-01-23T08:25:32.043Z,57.60
2019-01-23T08:28:01.639Z,57.30
2019-01-23T08:30:38.280Z,56.13
2019-01-23T08:33:02.559Z,56.57
2019-01-23T08:35:32.747Z,55.97
2019-01-23T08:38:02.351Z,54.90
2019-01-23T08:40:31.974Z,54.80
2019-01-23T08:43:01.587Z,59.60
2019-01-23T08:45:31.866Z,50.80
2019-01-23T08:48:01.475Z,54.77
2019-01-23T08:50:39.307Z,54.40
2019-01-23T08:53:08.918Z,55.00
2019-01-23T08:55:38.535Z,53.27
2019-01-23T08:58:08.136Z,56.37
2019-01-23T09:00:37.750Z,58.63
2019-01-23T09:03:07.356Z,56.50
2019-01-23T09:05:45.739Z,58.10
2019-01-23T09:08:15.350Z,52.40
2019-01-23T09:10:44.958Z,55.40
2019-01-23T09:13:14.575Z,55.47
2019-01-23T09:15:44.171Z,56.27
2019-01-23T09:18:13.791Z,54.40
2019-01-23T09:20:43.383Z,53.97
2019-01-23T09:23:13.003Z,57.50
2019-01-23T09:25:42.595Z,57.70
2019-01-23T09:28:12.202Z,62.80
2019-01-23T09:30:45.005Z,59.13
2019-01-23T09:33:20.888Z,59.07
2019-01-23T09:36:11.527Z,52.03
2019-01-23T09:38:53.499Z,51.50
2019-01-23T09:44:51.576Z,57.90
2019-01-23T09:47:27.368Z,46.90
2019-01-23T09:50:17.885Z,52.43
2019-01-23T09:52:59.886Z,53.60
2019-01-23T09:55:29.496Z,53.77
2019-01-23T09:57:59.101Z,55.17
2019-01-23T10:00:31.885Z,49.53
2019-01-23T10:03:00.980Z,55.60
2019-01-23T10:05:30.591Z,47.03
2019-01-23T10:08:00.187Z,49.20
2019-01-23T10:10:29.803Z,52.27
2019-01-23T10:12:59.400Z,50.03
2019-01-23T10:15:32.271Z,50.47
2019-01-23T10:18:01.871Z,48.63
2019-01-23T10:20:32.459Z,48.37
2019-01-23T10:23:02.065Z,48.93
2019-01-23T10:25:31.675Z,52.03
2019-01-23T10:28:01.275Z,51.23
2019-01-23T10:30:30.883Z,50.23
2019-01-23T10:33:00.499Z,51.33
2019-01-23T10:35:30.096Z,53.23
2019-01-23T10:37:59.713Z,47.47
2019-01-23T10:40:29.315Z,56.90
2019-01-23T10:42:58.923Z,52.10
2019-01-23T10:45:28.519Z,50.67
2019-01-23T10:47:58.129Z,48.40
2019-01-23T10:50:27.723Z,52.03
2019-01-23T10:52:57.331Z,51.13
2019-01-23T10:55:26.924Z,50.47
2019-01-23T10:57:56.541Z,54.83
2019-01-23T11:00:26.139Z,45.43
2019-01-23T11:02:55.751Z,47.10
2019-01-23T11:05:25.419Z,52.83
2019-01-23T11:07:55.035Z,48.67
2019-01-23T11:10:25.116Z,47.80
2019-01-23T11:12:54.740Z,49.13
2019-01-23T11:15:24.340Z,50.73
2019-01-23T11:17:53.947Z,51.10
2019-01-23T11:20:23.563Z,46.23
2019-01-23T11:22:53.159Z,47.87
2019-01-23T11:25:22.770Z,46.40
2019-01-23T11:27:52.361Z,49.70
2019-01-23T11:30:24.687Z,50.70
2019-01-23T11:32:54.287Z,48.30
2019-01-23T11:35:23.982Z,42.93
2019-01-23T11:37:53.631Z,48.17
2019-01-23T11:40:30.991Z,47.17
2019-01-23T11:43:00.670Z,44.97
2019-01-23T11:45:30.283Z,48.03
2019-01-23T11:47:59.882Z,48.33
2019-01-23T11:50:29.491Z,52.07
2019-01-23T11:52:59.084Z,46.40
2019-01-23T11:55:28.700Z,49.93
2019-01-23T11:57:58.297Z,42.87
2019-01-23T12:00:29.559Z,46.63
2019-01-23T12:02:59.159Z,46.03
2019-01-23T12:05:28.779Z,50.70
2019-01-23T12:07:58.390Z,48.67
2019-01-23T12:10:27.991Z,42.73
2019-01-23T12:12:57.610Z,48.97
2019-01-23T12:15:27.204Z,44.87
2019-01-23T12:17:56.844Z,45.83
2019-01-23T12:20:26.450Z,47.47
2019-01-23T12:22:56.257Z,49.93
2019-01-23T12:25:25.834Z,49.73
2019-01-23T12:27:55.450Z,48.30
2019-01-23T12:30:28.867Z,46.60
2019-01-23T12:32:58.477Z,43.20
2019-01-23T12:35:28.077Z,47.37
2019-01-23T12:37:57.683Z,47.27
2019-01-23T12:40:27.280Z,43.57
2019-01-23T12:42:56.899Z,44.60
2019-01-23T12:45:28.140Z,48.37
2019-01-23T12:47:57.753Z,45.37
2019-01-23T12:50:29.691Z,44.10
2019-01-23T12:52:59.305Z,49.30
2019-01-23T12:55:28.971Z,50.43
2019-01-23T12:57:58.580Z,51.00
2019-01-23T13:00:29.823Z,42.30
2019-01-23T13:02:59.675Z,45.50
2019-01-23T13:05:29.271Z,45.10
2019-01-23T13:07:58.879Z,52.27
2019-01-23T13:10:28.491Z,44.70
2019-01-23T13:12:58.104Z,47.60
2019-01-23T13:15:28.087Z,48.23
2019-01-23T13:17:57.682Z,47.00
2019-01-23T13:20:27.528Z,50.43
2019-01-23T13:22:57.170Z,47.77
2019-01-23T13:25:28.584Z,52.70
2019-01-23T13:28:00.141Z,46.80
2019-01-23T13:30:29.784Z,48.23
2019-01-23T13:32:59.420Z,49.03
2019-01-23T13:35:34.687Z,46.10
2019-01-23T13:38:08.187Z,42.80
2019-01-23T13:40:37.899Z,46.10
2019-01-23T13:43:07.665Z,46.17
2019-01-23T13:45:37.289Z,44.40
2019-01-23T13:48:07.207Z,42.90
2019-01-23T13:50:36.814Z,47.57
2019-01-23T13:53:06.419Z,46.43
2019-01-23T13:55:36.032Z,41.83
2019-01-23T13:58:05.626Z,47.57
2019-01-23T14:00:38.038Z,47.20
2019-01-23T14:03:07.807Z,46.93
2019-01-23T14:05:37.416Z,41.47
2019-01-23T14:08:07.554Z,47.10
2019-01-23T14:10:37.246Z,41.00
2019-01-23T14:13:06.846Z,44.07
2019-01-23T14:15:38.398Z,46.73
2019-01-23T14:18:08.000Z,49.23
2019-01-23T14:20:37.603Z,45.83
2019-01-23T14:23:07.211Z,47.83
2019-01-23T14:25:36.809Z,43.87
2019-01-23T14:28:06.439Z,39.27
2019-01-23T14:30:42.286Z,47.97
2019-01-23T14:33:11.980Z,43.63
2019-01-23T14:35:41.787Z,46.77
2019-01-23T14:38:11.555Z,44.90
2019-01-23T14:40:41.243Z,47.23
2019-01-23T14:43:10.855Z,45.00
2019-01-23T14:45:41.021Z,50.13
2019-01-23T14:48:10.627Z,43.93
2019-01-23T14:50:40.226Z,40.07
2019-01-23T14:53:10.823Z,42.87
2019-01-23T14:55:40.412Z,43.87
2019-01-23T14:58:10.021Z,49.20
2019-01-23T15:00:39.618Z,44.67
2019-01-23T15:03:09.233Z,43.30
2019-01-23T15:05:38.843Z,44.30
2019-01-23T15:08:08.451Z,49.10
2019-01-23T15:10:38.059Z,40.27
2019-01-23T15:13:07.679Z,45.33
2019-01-23T15:15:37.279Z,44.10
2019-01-23T15:18:06.891Z,43.20
2019-01-23T15:20:38.263Z,42.90
2019-01-23T15:23:07.859Z,45.60
2019-01-23T15:25:37.481Z,42.70
2019-01-23T15:28:07.083Z,37.23
2019-01-23T15:30:36.705Z,44.73
2019-01-23T15:33:06.313Z,40.13
2019-01-23T15:35:37.086Z,41.47
2019-01-23T15:38:06.703Z,40.37
2019-01-23T15:40:36.588Z,39.43
2019-01-23T15:43:06.193Z,42.47
2019-01-23T15:45:35.825Z,43.07
2019-01-23T15:48:05.479Z,40.80
2019-01-23T15:50:35.095Z,46.23
2019-01-23T15:53:04.693Z,38.63
2019-01-23T15:55:34.343Z,45.43
2019-01-23T15:58:03.951Z,41.70
2019-01-23T16:00:33.544Z,36.27
2019-01-23T16:03:03.160Z,37.67
2019-01-23T16:05:32.753Z,42.70
2019-01-23T16:08:02.364Z,48.43
2019-01-23T16:10:31.964Z,40.83
2019-01-23T16:13:03.072Z,39.80
2019-01-23T16:15:33.919Z,43.37
2019-01-23T16:18:03.720Z,37.03
2019-01-23T16:20:33.316Z,41.43
2019-01-23T16:23:02.995Z,39.70
2019-01-23T16:25:32.617Z,37.83
2019-01-23T16:28:02.260Z,39.57
2019-01-23T16:30:36.239Z,41.67
2019-01-23T16:33:05.845Z,40.93
2019-01-23T16:35:38.666Z,38.77
2019-01-23T16:38:06.762Z,38.63
2019-01-23T16:40:36.390Z,41.00
2019-01-23T16:43:05.993Z,40.07
2019-01-23T16:45:35.586Z,40.00
2019-01-23T16:48:05.209Z,38.63
2019-01-23T16:50:36.447Z,36.73
2019-01-23T16:53:06.043Z,38.93
2019-01-23T16:55:35.663Z,36.20
2019-01-23T16:58:05.482Z,41.43
2019-01-23T17:00:35.500Z,40.17
2019-01-23T17:03:05.235Z,37.50
2019-01-23T17:05:34.842Z,37.97
2019-01-23T17:08:05.270Z,39.60
2019-01-23T17:10:34.898Z,41.13
2019-01-23T17:13:04.488Z,42.40
2019-01-23T17:15:34.091Z,40.00
2019-01-23T17:18:03.774Z,38.77
2019-01-23T17:20:36.188Z,42.60
2019-01-23T17:23:28.390Z,43.83
2019-01-23T17:25:58.042Z,39.20
2019-01-23T17:28:27.636Z,40.20
2019-01-23T17:30:57.279Z,40.70
2019-01-23T17:33:26.924Z,44.07
2019-01-23T17:35:56.540Z,43.63
2019-01-23T17:38:26.144Z,39.50
2019-01-23T17:40:55.752Z,36.63
2019-01-23T17:43:26.840Z,39.57
2019-01-23T17:45:56.442Z,40.87
2019-01-23T17:48:26.064Z,39.83
2019-01-23T17:50:55.682Z,38.87
2019-01-23T17:53:25.283Z,35.70
2019-01-23T17:55:54.895Z,43.30
2019-01-23T17:58:24.519Z,37.43
2019-01-23T18:00:55.500Z,38.13
2019-01-23T18:03:25.109Z,43.00
2019-01-23T18:05:54.711Z,44.10
2019-01-23T18:08:25.967Z,47.83
2019-01-23T18:10:55.571Z,41.37
2019-01-23T18:13:25.174Z,40.43
2019-01-23T18:15:55.155Z,39.67
2019-01-23T18:18:27.683Z,39.70
2019-01-23T18:20:57.276Z,38.43
2019-01-23T18:23:26.885Z,39.53
2019-01-23T18:25:56.475Z,45.57
2019-01-23T18:28:26.087Z,42.47
2019-01-23T18:31:07.921Z,41.40
2019-01-23T18:33:43.731Z,40.83
2019-01-23T18:36:16.696Z,39.17
2019-01-23T18:38:58.812Z,38.97
2019-01-23T18:41:55.549Z,45.30
2019-01-23T18:44:51.990Z,46.27
2019-01-23T18:47:42.788Z,46.57
2019-01-23T18:50:36.571Z,44.90
2019-01-23T18:53:06.174Z,41.17
2019-01-23T18:55:35.808Z,42.33
2019-01-23T18:58:05.408Z,44.77
2019-01-23T19:00:35.014Z,35.90
2019-01-23T19:03:07.119Z,39.40
2019-01-23T19:05:35.940Z,39.27
2019-01-23T19:08:05.546Z,42.23
2019-01-23T19:10:35.151Z,39.37
2019-01-23T19:13:04.934Z,50.50
2019-01-23T19:15:34.531Z,40.53
2019-01-23T19:18:04.145Z,44.13
2019-01-23T19:20:33.727Z,44.40
2019-01-23T19:23:03.353Z,44.20
2019-01-23T19:25:32.948Z,45.93
2019-01-23T19:28:02.552Z,42.73
2019-01-23T19:30:32.150Z,42.60
2019-01-23T19:33:01.800Z,46.47
2019-01-23T19:35:31.396Z,44.00
2019-01-23T19:38:01.019Z,45.17
2019-01-23T19:40:30.616Z,45.63
2019-01-23T19:43:00.230Z,50.53
2019-01-23T19:45:29.833Z,44.00
2019-01-23T19:47:59.504Z,50.57
2019-01-23T19:50:29.120Z,45.20
2019-01-23T19:52:58.738Z,46.03
2019-01-23T19:55:28.344Z,45.47
2019-01-23T19:57:57.946Z,50.93
2019-01-23T20:00:27.563Z,43.60
2019-01-23T20:02:57.170Z,40.27
2019-01-23T20:05:26.771Z,48.00
2019-01-23T20:07:56.371Z,41.10
2019-01-23T20:10:26.018Z,45.60
2019-01-23T20:12:55.611Z,44.80
2019-01-23T20:15:25.215Z,46.33
2019-01-23T20:17:56.056Z,44.17
2019-01-23T20:20:25.666Z,46.00
2019-01-23T20:22:55.269Z,41.60
2019-01-23T20:25:26.082Z,41.43
2019-01-23T20:27:55.913Z,47.07
2019-01-23T20:30:30.962Z,42.13
2019-01-23T20:33:00.608Z,46.60
2019-01-23T20:35:30.215Z,44.23
2019-01-23T20:37:59.812Z,43.03
2019-01-23T20:40:30.298Z,42.57
2019-01-23T20:42:59.895Z,46.40
2019-01-23T20:45:29.504Z,45.33
2019-01-23T20:47:59.113Z,42.63
2019-01-23T20:50:30.270Z,44.53
2019-01-23T20:52:59.873Z,36.30
2019-01-23T20:55:29.479Z,39.53
2019-01-23T20:57:59.101Z,40.27
2019-01-23T21:00:33.051Z,44.10
2019-01-23T21:03:02.798Z,43.10
2019-01-23T21:05:32.404Z,39.80
2019-01-23T21:08:03.295Z,45.00
2019-01-23T21:10:32.903Z,43.73
2019-01-23T21:13:02.524Z,43.10
2019-01-23T21:15:32.143Z,48.07
2019-01-23T21:18:01.761Z,43.60
2019-01-23T21:20:31.530Z,39.50
2019-01-23T21:23:01.206Z,41.27
2019-01-23T21:25:30.791Z,45.83
2019-01-23T21:28:00.470Z,44.37
2019-01-23T21:30:30.082Z,41.60
2019-01-23T21:32:59.751Z,42.37
2019-01-23T21:35:29.355Z,40.20
2019-01-23T21:37:58.985Z,44.70
2019-01-23T21:40:30.439Z,49.27
2019-01-23T21:43:00.152Z,48.77
2019-01-23T21:45:30.014Z,47.80
2019-01-23T21:48:01.310Z,45.60
2019-01-23T21:50:30.927Z,44.60
2019-01-23T21:53:00.547Z,53.37
2019-01-23T21:55:30.172Z,57.77
2019-01-23T21:57:59.800Z,53.50
2019-01-23T22:00:38.375Z,50.57
2019-01-23T22:03:09.342Z,59.17
2019-01-23T22:05:38.974Z,55.33
2019-01-23T22:08:08.582Z,56.67
2019-01-23T22:10:38.240Z,59.80
2019-01-23T22:13:07.872Z,54.47
2019-01-23T22:15:37.479Z,60.93
2019-01-23T22:18:07.103Z,64.73
2019-01-23T22:20:36.752Z,55.63
2019-01-23T22:23:06.441Z,59.57
2019-01-23T22:25:36.061Z,63.53
2019-01-23T22:28:05.673Z,61.00
2019-01-23T22:30:35.284Z,64.27
2019-01-23T22:33:05.185Z,60.87
2019-01-23T22:35:34.796Z,59.07
2019-01-23T22:38:04.500Z,62.53
2019-01-23T22:40:34.122Z,62.57
2019-01-23T22:43:05.374Z,64.33
2019-01-23T22:45:35.028Z,64.23
2019-01-23T22:48:04.694Z,62.23
2019-01-23T22:50:34.312Z,63.30
2019-01-23T22:53:03.916Z,58.07
2019-01-23T22:55:33.528Z,63.63
2019-01-23T22:58:03.148Z,63.43
2019-01-23T23:00:48.460Z,60.23
2019-01-23T23:03:18.077Z,59.57
2019-01-23T23:05:47.761Z,68.73
2019-01-23T23:08:17.358Z,59.90
2019-01-23T23:10:46.993Z,59.77
2019-01-23T23:13:16.582Z,65.50
2019-01-23T23:15:46.180Z,66.23
2019-01-23T23:18:15.806Z,59.57
2019-01-23T23:20:45.414Z,52.57
2019-01-23T23:23:15.023Z,60.03
2019-01-23T23:25:45.949Z,62.63
2019-01-23T23:28:15.734Z,68.73
2019-01-23T23:30:46.415Z,56.13
2019-01-23T23:33:16.029Z,57.10
2019-01-23T23:35:45.655Z,62.80
2019-01-23T23:38:15.279Z,57.30
2019-01-23T23:40:44.937Z,58.87
2019-01-23T23:43:15.250Z,57.97
2019-01-23T23:45:44.868Z,59.70
2019-01-23T23:48:15.946Z,62.47
2019-01-23T23:50:45.581Z,64.23
2019-01-23T23:53:15.238Z,55.93
2019-01-23T23:55:44.877Z,59.67
2019-01-23T23:58:14.481Z,59.73
